createdAt,value
2016-08-24T00:00:59.735Z,22.54
2016-08-24T00:02:00.423Z,22.49
2016-08-24T00:03:00.427Z,22.51
2016-08-24T00:04:00.392Z,22.46
2016-08-24T00:04:59.666Z,22.57
2016-08-24T00:06:00.364Z,22.45
2016-08-24T00:06:59.639Z,22.45
2016-08-24T00:07:59.622Z,22.48
2016-08-24T00:09:00.317Z,22.48
2016-08-24T00:10:00.298Z,22.51
2016-08-24T00:11:00.287Z,22.44
2016-08-24T00:12:00.273Z,22.52
2016-08-24T00:13:00.262Z,22.49
2016-08-24T00:14:00.243Z,22.52
2016-08-24T00:14:59.522Z,22.52
2016-08-24T00:16:00.210Z,22.52
2016-08-24T00:17:00.191Z,22.46
2016-08-24T00:18:00.178Z,22.52
2016-08-24T00:19:00.161Z,22.49
2016-08-24T00:20:00.148Z,22.44
2016-08-24T00:21:00.122Z,22.38
2016-08-24T00:22:00.119Z,22.51
2016-08-24T00:23:00.092Z,22.45
2016-08-24T00:24:00.088Z,22.48
2016-08-24T00:25:00.062Z,22.48
2016-08-24T00:26:00.056Z,22.52
2016-08-24T00:26:59.325Z,22.52
2016-08-24T00:28:00.023Z,22.52
2016-08-24T00:28:59.286Z,22.49
2016-08-24T00:29:59.983Z,22.42
2016-08-24T00:30:59.976Z,22.54
2016-08-24T00:31:59.251Z,22.38
2016-08-24T00:32:59.943Z,22.48
2016-08-24T00:33:59.917Z,22.41
2016-08-24T00:34:59.910Z,22.45
2016-08-24T00:35:59.888Z,22.46
2016-08-24T00:36:59.879Z,22.41
2016-08-24T00:37:59.855Z,22.41
2016-08-24T00:38:59.850Z,22.45
2016-08-24T00:39:59.823Z,22.41
2016-08-24T00:40:59.815Z,22.38
2016-08-24T00:41:59.100Z,22.38
2016-08-24T00:42:59.082Z,22.35
2016-08-24T00:43:59.767Z,22.38
2016-08-24T00:44:59.743Z,22.39
2016-08-24T00:45:59.731Z,22.33
2016-08-24T00:46:59.723Z,22.35
2016-08-24T00:47:59.705Z,22.39
2016-08-24T00:48:58.971Z,22.39
2016-08-24T00:49:59.675Z,22.35
2016-08-24T00:50:59.656Z,22.39
2016-08-24T00:51:58.928Z,22.29
2016-08-24T00:52:59.628Z,22.31
2016-08-24T00:53:59.610Z,22.3
2016-08-24T00:54:59.587Z,22.3
2016-08-24T00:55:59.587Z,22.19
2016-08-24T00:56:59.558Z,22.19
2016-08-24T00:57:58.839Z,22.23
2016-08-24T00:58:59.529Z,22.27
2016-08-24T00:59:59.503Z,22.27
2016-08-24T01:00:59.495Z,22.31
2016-08-24T01:01:59.476Z,22.23
2016-08-24T01:02:58.751Z,22.24
2016-08-24T01:03:58.747Z,22.23
2016-08-24T01:04:59.433Z,22.23
2016-08-24T01:05:59.412Z,22.21
2016-08-24T01:06:58.689Z,22.24
2016-08-24T01:07:59.387Z,22.24
2016-08-24T01:08:59.368Z,22.27
2016-08-24T01:09:59.356Z,22.27
2016-08-24T01:10:59.341Z,22.3
2016-08-24T01:11:59.316Z,22.17
2016-08-24T01:12:59.305Z,22.21
2016-08-24T01:13:59.278Z,22.23
2016-08-24T01:14:59.274Z,22.11
2016-08-24T01:15:59.260Z,22.12
2016-08-24T01:16:59.244Z,22.17
2016-08-24T01:17:58.521Z,22.14
2016-08-24T01:18:59.217Z,22.09
2016-08-24T01:19:59.205Z,22.09
2016-08-24T01:20:59.179Z,22.14
2016-08-24T01:21:58.453Z,22.14
2016-08-24T01:22:59.147Z,22.14
2016-08-24T01:23:59.135Z,22.14
2016-08-24T01:24:58.408Z,22.15
2016-08-24T01:25:58.395Z,22.12
2016-08-24T01:26:59.080Z,22.15
2016-08-24T01:27:59.066Z,22.15
2016-08-24T01:28:59.056Z,22.17
2016-08-24T01:29:59.042Z,22.14
2016-08-24T01:30:59.018Z,22.06
2016-08-24T01:31:59.005Z,22.15
2016-08-24T01:32:58.978Z,22.08
2016-08-24T01:33:58.966Z,22.09
2016-08-24T01:34:58.248Z,22.06
2016-08-24T01:35:58.944Z,22.14
2016-08-24T01:36:58.231Z,22.09
2016-08-24T01:37:58.904Z,22.08
2016-08-24T01:38:58.892Z,22.12
2016-08-24T01:39:58.877Z,22.04
2016-08-24T01:40:58.149Z,22.04
2016-08-24T01:41:58.845Z,22.04
2016-08-24T01:42:58.833Z,22.02
2016-08-24T01:43:58.802Z,22.02
2016-08-24T01:44:58.792Z,22.09
2016-08-24T01:45:58.083Z,22.01
2016-08-24T01:46:58.765Z,22.06
2016-08-24T01:47:58.747Z,22.02
2016-08-24T01:48:58.741Z,22.04
2016-08-24T01:49:58.731Z,21.99
2016-08-24T01:50:58.705Z,22.08
2016-08-24T01:51:58.688Z,22.12
2016-08-24T01:52:58.673Z,22.11
2016-08-24T01:53:57.940Z,22.06
2016-08-24T01:54:57.916Z,22.06
2016-08-24T01:55:57.915Z,22.04
2016-08-24T01:56:58.601Z,22.05
2016-08-24T01:57:58.581Z,22.02
2016-08-24T01:58:58.571Z,22.08
2016-08-24T01:59:58.557Z,22.04
2016-08-24T02:00:58.531Z,22.02
2016-08-24T02:01:58.522Z,22.01
2016-08-24T02:02:58.512Z,21.93
2016-08-24T02:03:58.489Z,21.94
2016-08-24T02:04:57.766Z,21.98
2016-08-24T02:05:58.469Z,22.01
2016-08-24T02:06:57.735Z,21.93
2016-08-24T02:07:58.426Z,21.99
2016-08-24T02:08:58.409Z,21.94
2016-08-24T02:09:58.409Z,21.93
2016-08-24T02:10:57.677Z,21.93
2016-08-24T02:11:58.358Z,21.99
2016-08-24T02:12:58.347Z,21.85
2016-08-24T02:13:58.329Z,21.89
2016-08-24T02:14:58.319Z,21.82
2016-08-24T02:15:57.592Z,21.98
2016-08-24T02:16:58.287Z,21.91
2016-08-24T02:17:58.269Z,21.86
2016-08-24T02:18:57.547Z,21.94
2016-08-24T02:19:57.533Z,21.82
2016-08-24T02:20:57.507Z,21.82
2016-08-24T02:21:58.207Z,21.9
2016-08-24T02:22:57.478Z,21.89
2016-08-24T02:23:58.183Z,21.85
2016-08-24T02:24:58.159Z,21.93
2016-08-24T02:25:57.426Z,21.94
2016-08-24T02:26:58.125Z,21.81
2016-08-24T02:27:58.104Z,21.82
2016-08-24T02:28:58.091Z,21.89
2016-08-24T02:29:58.085Z,21.82
2016-08-24T02:30:58.072Z,21.86
2016-08-24T02:31:58.043Z,21.85
2016-08-24T02:32:58.028Z,21.74
2016-08-24T02:33:58.008Z,21.71
2016-08-24T02:34:57.293Z,21.73
2016-08-24T02:35:57.270Z,21.82
2016-08-24T02:36:57.259Z,21.75
2016-08-24T02:37:57.955Z,21.73
2016-08-24T02:38:57.935Z,21.71
2016-08-24T02:39:57.197Z,21.75
2016-08-24T02:40:57.902Z,21.74
2016-08-24T02:41:57.881Z,21.74
2016-08-24T02:42:57.862Z,21.73
2016-08-24T02:43:57.851Z,21.82
2016-08-24T02:44:57.827Z,21.85
2016-08-24T02:45:57.821Z,21.82
2016-08-24T02:46:57.094Z,21.89
2016-08-24T02:47:57.788Z,21.82
2016-08-24T02:48:57.774Z,21.85
2016-08-24T02:49:57.756Z,21.85
2016-08-24T02:50:57.032Z,21.85
2016-08-24T02:51:57.018Z,21.83
2016-08-24T02:52:57.706Z,21.77
2016-08-24T02:53:57.693Z,21.79
2016-08-24T02:54:57.675Z,21.77
2016-08-24T02:55:57.664Z,21.77
2016-08-24T02:56:57.639Z,21.77
2016-08-24T02:57:56.915Z,21.77
2016-08-24T02:58:57.607Z,21.85
2016-08-24T02:59:57.591Z,21.74
2016-08-24T03:00:56.869Z,21.77
2016-08-24T03:01:57.561Z,21.75
2016-08-24T03:02:57.535Z,21.75
2016-08-24T03:03:57.529Z,21.75
2016-08-24T03:04:57.513Z,21.79
2016-08-24T03:05:56.781Z,21.77
2016-08-24T03:06:57.475Z,21.82
2016-08-24T03:07:56.760Z,21.75
2016-08-24T03:08:57.452Z,21.74
2016-08-24T03:09:57.432Z,21.7
2016-08-24T03:10:56.703Z,21.73
2016-08-24T03:11:57.609Z,21.7
2016-08-24T03:12:57.386Z,21.73
2016-08-24T03:13:57.362Z,21.7
2016-08-24T03:14:57.345Z,21.68
2016-08-24T03:15:57.333Z,21.77
2016-08-24T03:16:57.315Z,21.77
2016-08-24T03:17:57.304Z,21.7
2016-08-24T03:18:57.279Z,21.77
2016-08-24T03:19:56.560Z,21.79
2016-08-24T03:20:56.545Z,21.7
2016-08-24T03:21:56.528Z,21.73
2016-08-24T03:22:57.229Z,21.74
2016-08-24T03:23:57.207Z,21.73
2016-08-24T03:24:57.189Z,21.7
2016-08-24T03:25:57.168Z,21.77
2016-08-24T03:26:57.158Z,21.81
2016-08-24T03:27:57.151Z,21.73
2016-08-24T03:28:57.124Z,21.68
2016-08-24T03:29:57.109Z,21.67
2016-08-24T03:30:57.099Z,21.66
2016-08-24T03:31:57.073Z,21.7
2016-08-24T03:32:57.061Z,21.74
2016-08-24T03:33:57.046Z,21.66
2016-08-24T03:34:57.028Z,21.68
2016-08-24T03:35:57.009Z,21.61
2016-08-24T03:36:56.286Z,21.63
2016-08-24T03:37:56.269Z,21.67
2016-08-24T03:38:56.249Z,21.58
2016-08-24T03:39:56.948Z,21.63
2016-08-24T03:40:56.930Z,21.68
2016-08-24T03:41:56.924Z,21.66
2016-08-24T03:42:56.903Z,21.64
2016-08-24T03:43:56.883Z,21.56
2016-08-24T03:44:56.860Z,21.56
2016-08-24T03:45:56.852Z,21.66
2016-08-24T03:46:56.123Z,21.52
2016-08-24T03:47:55.393Z,21.58
2016-08-24T03:48:56.793Z,21.55
2016-08-24T03:49:56.074Z,21.53
2016-08-24T03:50:56.065Z,21.53
2016-08-24T03:51:56.035Z,21.53
2016-08-24T03:52:56.023Z,21.52
2016-08-24T03:53:56.712Z,21.63
2016-08-24T03:54:55.992Z,21.61
2016-08-24T03:55:55.979Z,21.61
2016-08-24T03:56:56.676Z,21.59
2016-08-24T03:57:56.648Z,21.63
2016-08-24T03:58:55.940Z,21.63
2016-08-24T03:59:55.919Z,21.56
2016-08-24T04:00:56.600Z,21.49
2016-08-24T04:01:56.606Z,21.52
2016-08-24T04:02:56.566Z,21.56
2016-08-24T04:03:56.556Z,21.55
2016-08-24T04:04:56.554Z,21.56
2016-08-24T04:05:55.813Z,21.51
2016-08-24T04:06:56.498Z,21.51
2016-08-24T04:07:56.493Z,21.56
2016-08-24T04:08:56.474Z,21.52
2016-08-24T04:09:55.742Z,21.52
2016-08-24T04:10:56.442Z,21.56
2016-08-24T04:11:56.421Z,21.52
2016-08-24T04:12:56.413Z,21.55
2016-08-24T04:13:55.694Z,21.52
2016-08-24T04:14:56.382Z,21.51
2016-08-24T04:15:56.359Z,21.49
2016-08-24T04:16:56.350Z,21.53
2016-08-24T04:17:56.333Z,21.52
2016-08-24T04:18:56.310Z,21.48
2016-08-24T04:19:56.298Z,21.53
2016-08-24T04:20:56.277Z,21.48
2016-08-24T04:21:56.265Z,21.52
2016-08-24T04:22:56.251Z,21.52
2016-08-24T04:23:56.235Z,21.43
2016-08-24T04:24:56.214Z,21.4
2016-08-24T04:25:55.491Z,21.34
2016-08-24T04:26:55.483Z,21.38
2016-08-24T04:27:56.166Z,21.4
2016-08-24T04:28:56.152Z,21.4
2016-08-24T04:29:56.138Z,21.38
2016-08-24T04:30:56.126Z,21.46
2016-08-24T04:31:54.684Z,21.37
2016-08-24T04:32:56.090Z,21.42
2016-08-24T04:33:56.071Z,21.37
2016-08-24T04:34:56.052Z,21.38
2016-08-24T04:35:56.032Z,21.37
2016-08-24T04:36:56.017Z,21.34
2016-08-24T04:37:54.581Z,21.33
2016-08-24T04:38:55.985Z,21.3
2016-08-24T04:39:55.262Z,21.38
2016-08-24T04:40:55.951Z,21.43
2016-08-24T04:41:55.229Z,21.37
2016-08-24T04:42:55.927Z,21.38
2016-08-24T04:43:55.904Z,21.34
2016-08-24T04:44:55.192Z,21.37
2016-08-24T04:45:55.879Z,21.31
2016-08-24T04:46:55.858Z,21.37
2016-08-24T04:47:55.837Z,21.36
2016-08-24T04:48:55.117Z,21.37
2016-08-24T04:49:55.809Z,21.3
2016-08-24T04:50:55.801Z,21.4
2016-08-24T04:51:54.355Z,21.28
2016-08-24T04:52:55.044Z,21.27
2016-08-24T04:53:55.033Z,21.27
2016-08-24T04:54:55.730Z,21.37
2016-08-24T04:55:55.702Z,21.31
2016-08-24T04:56:55.696Z,21.31
2016-08-24T04:57:55.668Z,21.37
2016-08-24T04:58:55.664Z,21.37
2016-08-24T04:59:55.645Z,21.26
2016-08-24T05:00:54.914Z,21.26
2016-08-24T05:01:55.615Z,21.22
2016-08-24T05:02:55.592Z,21.21
2016-08-24T05:03:55.579Z,21.21
2016-08-24T05:04:55.570Z,21.21
2016-08-24T05:05:54.127Z,21.11
2016-08-24T05:06:54.831Z,21.08
2016-08-24T05:07:55.506Z,21.06
2016-08-24T05:08:54.789Z,21.06
2016-08-24T05:09:55.480Z,21.01
2016-08-24T05:10:55.458Z,20.91
2016-08-24T05:11:55.439Z,21.03
2016-08-24T05:12:55.430Z,20.88
2016-08-24T05:13:55.410Z,20.88
2016-08-24T05:14:54.694Z,20.87
2016-08-24T05:15:55.382Z,20.83
2016-08-24T05:16:55.368Z,20.75
2016-08-24T05:17:55.348Z,20.83
2016-08-24T05:18:55.335Z,20.96
2016-08-24T05:19:55.319Z,20.96
2016-08-24T05:20:55.304Z,21.08
2016-08-24T05:21:54.572Z,21.12
2016-08-24T05:22:55.279Z,21.22
2016-08-24T05:23:55.251Z,21.31
2016-08-24T05:24:55.241Z,21.34
2016-08-24T05:25:55.219Z,21.42
2016-08-24T05:26:55.204Z,21.4
2016-08-24T05:27:55.184Z,21.37
2016-08-24T05:28:55.173Z,21.46
2016-08-24T05:29:55.151Z,21.53
2016-08-24T05:30:55.141Z,21.56
2016-08-24T05:31:55.128Z,21.48
2016-08-24T05:32:55.099Z,21.51
2016-08-24T05:33:55.092Z,21.52
2016-08-24T05:34:54.359Z,21.55
2016-08-24T05:35:54.345Z,21.53
2016-08-24T05:36:55.041Z,21.52
2016-08-24T05:37:54.308Z,21.53
2016-08-24T05:38:54.296Z,21.55
2016-08-24T05:39:54.983Z,21.59
2016-08-24T05:40:54.969Z,21.59
2016-08-24T05:41:54.955Z,21.64
2016-08-24T05:42:54.233Z,21.63
2016-08-24T05:43:54.215Z,21.63
2016-08-24T05:44:54.197Z,21.64
2016-08-24T05:45:54.179Z,21.63
2016-08-24T05:46:54.862Z,21.67
2016-08-24T05:47:54.853Z,21.7
2016-08-24T05:48:54.837Z,21.73
2016-08-24T05:49:54.107Z,21.64
2016-08-24T05:50:54.807Z,21.68
2016-08-24T05:51:54.093Z,21.71
2016-08-24T05:52:54.775Z,21.77
2016-08-24T05:53:54.761Z,21.77
2016-08-24T05:54:54.745Z,21.73
2016-08-24T05:55:54.722Z,21.75
2016-08-24T05:56:54.005Z,21.83
2016-08-24T05:57:53.276Z,21.82
2016-08-24T05:58:54.685Z,21.89
2016-08-24T05:59:54.673Z,21.82
2016-08-24T06:00:54.656Z,21.89
2016-08-24T06:01:54.624Z,21.91
2016-08-24T06:02:54.613Z,21.91
2016-08-24T06:03:53.887Z,21.89
2016-08-24T06:04:53.158Z,21.89
2016-08-24T06:05:53.869Z,21.98
2016-08-24T06:06:54.554Z,21.93
2016-08-24T06:07:53.113Z,21.98
2016-08-24T06:08:53.802Z,21.94
2016-08-24T06:09:54.501Z,21.96
2016-08-24T06:10:54.485Z,21.9
2016-08-24T06:11:54.461Z,21.94
2016-08-24T06:12:54.445Z,21.99
2016-08-24T06:13:54.435Z,21.99
2016-08-24T06:14:53.705Z,22.08
2016-08-24T06:15:53.694Z,22.11
2016-08-24T06:16:53.677Z,22.12
2016-08-24T06:17:54.377Z,22.09
2016-08-24T06:18:53.648Z,22.01
2016-08-24T06:19:53.635Z,22.09
2016-08-24T06:20:53.602Z,22.08
2016-08-24T06:21:54.298Z,22.11
2016-08-24T06:22:54.289Z,22.08
2016-08-24T06:23:53.558Z,22.09
2016-08-24T06:24:54.256Z,22.17
2016-08-24T06:25:54.242Z,22.14
2016-08-24T06:26:53.508Z,22.21
2016-08-24T06:27:54.205Z,22.29
2016-08-24T06:28:52.769Z,22.15
2016-08-24T06:29:53.458Z,22.2
2016-08-24T06:30:54.155Z,22.14
2016-08-24T06:31:54.137Z,22.21
2016-08-24T06:32:54.124Z,22.19
2016-08-24T06:33:54.116Z,22.27
2016-08-24T06:34:54.095Z,22.35
2016-08-24T06:35:53.378Z,22.27
2016-08-24T06:36:52.644Z,22.31
2016-08-24T06:37:54.039Z,22.41
2016-08-24T06:38:54.020Z,22.35
2016-08-24T06:39:54.006Z,22.31
2016-08-24T06:40:53.993Z,22.35
2016-08-24T06:41:53.265Z,22.27
2016-08-24T06:42:53.957Z,22.3
2016-08-24T06:43:53.946Z,22.36
2016-08-24T06:44:53.924Z,22.33
2016-08-24T06:45:53.911Z,22.38
2016-08-24T06:46:53.895Z,22.45
2016-08-24T06:47:53.173Z,22.38
2016-08-24T06:48:53.151Z,22.38
2016-08-24T06:49:53.134Z,22.42
2016-08-24T06:50:53.128Z,22.45
2016-08-24T06:51:53.809Z,22.45
2016-08-24T06:52:53.806Z,22.48
2016-08-24T06:53:53.776Z,22.48
2016-08-24T06:54:53.058Z,22.42
2016-08-24T06:55:53.757Z,22.56
2016-08-24T06:56:53.017Z,22.54
2016-08-24T06:57:53.716Z,22.49
2016-08-24T06:58:52.983Z,22.49
2016-08-24T06:59:53.688Z,22.48
2016-08-24T07:00:53.677Z,22.49
2016-08-24T07:01:53.650Z,22.51
2016-08-24T07:02:52.936Z,22.59
2016-08-24T07:03:53.617Z,22.45
2016-08-24T07:04:53.606Z,22.45
2016-08-24T07:05:53.585Z,22.57
2016-08-24T07:06:53.571Z,22.51
2016-08-24T07:07:52.842Z,22.57
2016-08-24T07:08:53.543Z,22.45
2016-08-24T07:09:53.525Z,22.56
2016-08-24T07:10:53.506Z,22.54
2016-08-24T07:11:52.784Z,22.59
2016-08-24T07:12:53.475Z,22.57
2016-08-24T07:13:52.756Z,22.63
2016-08-24T07:14:52.732Z,22.6
2016-08-24T07:15:53.425Z,22.56
2016-08-24T07:16:52.699Z,22.59
2016-08-24T07:17:53.396Z,22.61
2016-08-24T07:18:52.679Z,22.61
2016-08-24T07:19:53.363Z,22.67
2016-08-24T07:20:53.343Z,22.66
2016-08-24T07:21:53.329Z,22.7
2016-08-24T07:22:53.314Z,22.64
2016-08-24T07:23:52.598Z,22.69
2016-08-24T07:24:52.573Z,22.67
2016-08-24T07:25:52.551Z,22.7
2016-08-24T07:26:52.545Z,22.76
2016-08-24T07:27:52.527Z,22.76
2016-08-24T07:28:53.216Z,22.84
2016-08-24T07:29:53.239Z,22.76
2016-08-24T07:30:53.184Z,22.81
2016-08-24T07:31:52.458Z,22.79
2016-08-24T07:32:53.156Z,22.81
2016-08-24T07:33:53.149Z,22.78
2016-08-24T07:34:53.129Z,22.79
2016-08-24T07:35:53.110Z,22.84
2016-08-24T07:36:52.391Z,22.84
2016-08-24T07:37:52.365Z,22.84
2016-08-24T07:38:53.066Z,22.89
2016-08-24T07:39:52.338Z,22.85
2016-08-24T07:40:52.336Z,22.84
2016-08-24T07:41:53.046Z,22.82
2016-08-24T07:42:52.998Z,22.94
2016-08-24T07:43:52.980Z,22.84
2016-08-24T07:44:52.975Z,22.86
2016-08-24T07:45:52.250Z,22.88
2016-08-24T07:46:51.525Z,22.91
2016-08-24T07:47:52.213Z,22.89
2016-08-24T07:48:52.196Z,23
2016-08-24T07:49:52.884Z,22.93
2016-08-24T07:50:52.870Z,23.01
2016-08-24T07:51:52.862Z,22.99
2016-08-24T07:52:52.842Z,23.04
2016-08-24T07:53:52.117Z,23.01
2016-08-24T07:54:52.103Z,23.03
2016-08-24T07:55:52.797Z,23.01
2016-08-24T07:56:52.770Z,22.99
2016-08-24T07:57:52.762Z,22.91
2016-08-24T07:58:52.038Z,23
2016-08-24T07:59:52.021Z,23
2016-08-24T08:00:52.713Z,22.99
2016-08-24T08:01:51.283Z,22.99
2016-08-24T08:02:52.681Z,23.03
2016-08-24T08:03:52.674Z,23.01
2016-08-24T08:04:52.655Z,22.94
2016-08-24T08:05:51.915Z,22.99
2016-08-24T08:06:52.625Z,23.04
2016-08-24T08:07:51.895Z,23.04
2016-08-24T08:08:52.599Z,22.96
2016-08-24T08:09:52.601Z,22.88
2016-08-24T08:10:51.847Z,22.91
2016-08-24T08:11:51.842Z,22.93
2016-08-24T08:12:52.531Z,23.01
2016-08-24T08:13:52.518Z,22.94
2016-08-24T08:14:52.503Z,22.93
2016-08-24T08:15:52.479Z,23
2016-08-24T08:16:52.467Z,23
2016-08-24T08:17:51.737Z,22.91
2016-08-24T08:18:51.724Z,23.01
2016-08-24T08:19:52.420Z,23
2016-08-24T08:20:52.404Z,23.03
2016-08-24T08:21:52.384Z,23
2016-08-24T08:22:52.376Z,23
2016-08-24T08:23:52.350Z,23.01
2016-08-24T08:24:52.340Z,22.99
2016-08-24T08:25:51.611Z,22.99
2016-08-24T08:26:51.616Z,23.09
2016-08-24T08:27:51.590Z,23.01
2016-08-24T08:28:52.268Z,23.01
2016-08-24T08:29:52.263Z,23
2016-08-24T08:30:52.245Z,22.97
2016-08-24T08:31:51.515Z,23.01
2016-08-24T08:32:51.500Z,22.99
2016-08-24T08:33:52.205Z,23.14
2016-08-24T08:34:52.178Z,23
2016-08-24T08:35:51.449Z,22.99
2016-08-24T08:36:52.148Z,23.04
2016-08-24T08:37:50.719Z,23.04
2016-08-24T08:38:52.120Z,22.97
2016-08-24T08:39:51.392Z,22.97
2016-08-24T08:40:52.081Z,23.06
2016-08-24T08:41:51.360Z,23.04
2016-08-24T08:42:51.351Z,22.97
2016-08-24T08:43:52.049Z,22.94
2016-08-24T08:44:51.326Z,23.06
2016-08-24T08:45:51.295Z,23.01
2016-08-24T08:46:51.990Z,23.01
2016-08-24T08:47:51.269Z,23.01
2016-08-24T08:48:51.972Z,23.01
2016-08-24T08:49:51.936Z,23.01
2016-08-24T08:50:51.935Z,23.04
2016-08-24T08:51:51.916Z,22.94
2016-08-24T08:52:51.190Z,22.99
2016-08-24T08:53:51.881Z,23
2016-08-24T08:54:51.875Z,23.07
2016-08-24T08:55:51.851Z,22.99
2016-08-24T08:56:51.126Z,23.04
2016-08-24T08:57:51.129Z,23.07
2016-08-24T08:58:51.804Z,23.14
2016-08-24T08:59:51.802Z,23.01
2016-08-24T09:00:51.767Z,23
2016-08-24T09:01:51.762Z,23.06
2016-08-24T09:02:51.768Z,23.15
2016-08-24T09:03:51.026Z,23.12
2016-08-24T09:04:51.714Z,23.12
2016-08-24T09:05:50.994Z,23.12
2016-08-24T09:06:51.682Z,23.16
2016-08-24T09:07:51.662Z,23.09
2016-08-24T09:08:50.943Z,23.12
2016-08-24T09:09:51.634Z,23.11
2016-08-24T09:10:50.917Z,23.15
2016-08-24T09:11:50.892Z,23.06
2016-08-24T09:12:51.585Z,23.12
2016-08-24T09:13:50.857Z,23.18
2016-08-24T09:14:51.564Z,23.11
2016-08-24T09:15:50.833Z,23.09
2016-08-24T09:16:50.110Z,23.16
2016-08-24T09:17:51.510Z,23.12
2016-08-24T09:18:51.498Z,23.15
2016-08-24T09:19:51.478Z,23.04
2016-08-24T09:20:51.463Z,23.07
2016-08-24T09:21:51.453Z,23.07
2016-08-24T09:22:51.432Z,23.14
2016-08-24T09:23:50.707Z,23.03
2016-08-24T09:24:51.405Z,23.07
2016-08-24T09:25:50.677Z,23.07
2016-08-24T09:26:51.369Z,23.07
2016-08-24T09:27:51.364Z,23.06
2016-08-24T09:28:50.641Z,23.12
2016-08-24T09:29:50.618Z,23.07
2016-08-24T09:30:51.300Z,23.14
2016-08-24T09:31:51.303Z,23.12
2016-08-24T09:32:51.281Z,23.07
2016-08-24T09:33:51.275Z,23.06
2016-08-24T09:34:51.244Z,23.07
2016-08-24T09:35:50.525Z,23.06
2016-08-24T09:36:51.211Z,23.03
2016-08-24T09:37:50.490Z,23.14
2016-08-24T09:38:51.188Z,23.07
2016-08-24T09:39:51.170Z,23.07
2016-08-24T09:40:50.449Z,23.12
2016-08-24T09:41:51.143Z,23.09
2016-08-24T09:42:50.415Z,23.12
2016-08-24T09:43:51.116Z,23.07
2016-08-24T09:44:50.389Z,23.09
2016-08-24T09:45:50.371Z,23.14
2016-08-24T09:46:51.064Z,23.06
2016-08-24T09:47:51.041Z,23.06
2016-08-24T09:48:50.328Z,23.14
2016-08-24T09:49:51.022Z,23.06
2016-08-24T09:50:50.999Z,23.14
2016-08-24T09:51:50.279Z,23.04
2016-08-24T09:52:50.971Z,23.11
2016-08-24T09:53:50.245Z,23.16
2016-08-24T09:54:49.518Z,23.15
2016-08-24T09:55:50.222Z,23.11
2016-08-24T09:56:49.489Z,23.09
2016-08-24T09:57:50.902Z,23.18
2016-08-24T09:58:50.876Z,23.15
2016-08-24T09:59:50.858Z,23.07
2016-08-24T10:00:50.840Z,23.15
2016-08-24T10:01:50.828Z,23.19
2016-08-24T10:02:50.816Z,23.18
2016-08-24T10:03:50.799Z,23.15
2016-08-24T10:04:50.776Z,23.18
2016-08-24T10:05:50.770Z,23.16
2016-08-24T10:06:50.747Z,23.15
2016-08-24T10:07:50.045Z,23.16
2016-08-24T10:08:50.013Z,23.16
2016-08-24T10:09:50.710Z,23.18
2016-08-24T10:10:50.682Z,23.16
2016-08-24T10:11:49.965Z,23.26
2016-08-24T10:12:49.941Z,23.16
2016-08-24T10:13:50.646Z,23.32
2016-08-24T10:14:50.623Z,23.19
2016-08-24T10:15:50.622Z,23.23
2016-08-24T10:16:49.887Z,23.21
2016-08-24T10:17:50.594Z,23.23
2016-08-24T10:18:49.859Z,23.14
2016-08-24T10:19:50.553Z,23.18
2016-08-24T10:20:50.534Z,23.32
2016-08-24T10:21:49.821Z,23.22
2016-08-24T10:22:50.503Z,23.32
2016-08-24T10:23:50.491Z,23.25
2016-08-24T10:24:50.471Z,23.26
2016-08-24T10:25:50.457Z,23.25
2016-08-24T10:26:49.725Z,23.23
2016-08-24T10:27:49.717Z,23.26
2016-08-24T10:28:50.408Z,23.22
2016-08-24T10:29:49.690Z,23.23
2016-08-24T10:30:50.395Z,23.38
2016-08-24T10:31:50.364Z,23.35
2016-08-24T10:32:50.350Z,23.26
2016-08-24T10:33:50.329Z,23.32
2016-08-24T10:34:50.323Z,23.29
2016-08-24T10:35:50.302Z,23.25
2016-08-24T10:36:50.294Z,23.31
2016-08-24T10:37:49.558Z,23.32
2016-08-24T10:38:50.265Z,23.35
2016-08-24T10:39:49.540Z,23.37
2016-08-24T10:40:50.234Z,23.34
2016-08-24T10:41:49.501Z,23.42
2016-08-24T10:42:49.486Z,23.38
2016-08-24T10:43:50.177Z,23.41
2016-08-24T10:44:50.169Z,23.42
2016-08-24T10:45:50.173Z,23.45
2016-08-24T10:46:50.143Z,23.22
2016-08-24T10:47:49.407Z,23.34
2016-08-24T10:48:49.389Z,23.37
2016-08-24T10:49:50.085Z,23.26
2016-08-24T10:50:50.072Z,23.32
2016-08-24T10:51:49.337Z,23.34
2016-08-24T10:52:50.047Z,23.35
2016-08-24T10:53:50.024Z,23.39
2016-08-24T10:54:50.010Z,23.38
2016-08-24T10:55:49.991Z,23.41
2016-08-24T10:56:49.990Z,23.34
2016-08-24T10:57:49.964Z,23.37
2016-08-24T10:58:49.956Z,23.25
2016-08-24T10:59:49.930Z,23.34
2016-08-24T11:00:49.922Z,23.37
2016-08-24T11:01:49.898Z,23.34
2016-08-24T11:02:48.462Z,23.26
2016-08-24T11:03:49.871Z,23.35
2016-08-24T11:04:49.863Z,23.37
2016-08-24T11:05:49.840Z,23.29
2016-08-24T11:06:49.115Z,23.29
2016-08-24T11:07:49.828Z,23.37
2016-08-24T11:08:49.798Z,23.35
2016-08-24T11:09:49.078Z,23.26
2016-08-24T11:10:49.929Z,23.38
2016-08-24T11:11:49.754Z,23.34
2016-08-24T11:12:49.725Z,23.32
2016-08-24T11:13:49.719Z,23.32
2016-08-24T11:14:49.709Z,23.29
2016-08-24T11:15:49.690Z,23.35
2016-08-24T11:16:49.670Z,23.34
2016-08-24T11:17:48.965Z,23.35
2016-08-24T11:18:49.641Z,23.29
2016-08-24T11:19:48.941Z,23.31
2016-08-24T11:20:49.626Z,23.37
2016-08-24T11:21:49.617Z,23.31
2016-08-24T11:22:48.161Z,23.39
2016-08-24T11:23:48.857Z,23.31
2016-08-24T11:24:49.548Z,23.32
2016-08-24T11:25:49.539Z,23.38
2016-08-24T11:26:48.806Z,23.32
2016-08-24T11:27:49.513Z,23.38
2016-08-24T11:28:49.489Z,23.38
2016-08-24T11:29:48.756Z,23.38
2016-08-24T11:30:48.757Z,23.35
2016-08-24T11:31:49.445Z,23.37
2016-08-24T11:32:49.430Z,23.41
2016-08-24T11:33:49.420Z,23.42
2016-08-24T11:34:48.685Z,23.38
2016-08-24T11:35:47.970Z,23.38
2016-08-24T11:36:48.655Z,23.26
2016-08-24T11:37:49.338Z,23.37
2016-08-24T11:38:49.353Z,23.31
2016-08-24T11:39:48.614Z,23.37
2016-08-24T11:40:48.588Z,23.32
2016-08-24T11:41:49.289Z,23.32
2016-08-24T11:42:48.570Z,23.37
2016-08-24T11:43:49.250Z,23.29
2016-08-24T11:44:49.247Z,23.34
2016-08-24T11:45:49.225Z,23.34
2016-08-24T11:46:47.785Z,23.37
2016-08-24T11:47:48.484Z,23.35
2016-08-24T11:48:47.756Z,23.26
2016-08-24T11:49:48.464Z,23.29
2016-08-24T11:50:49.149Z,23.29
2016-08-24T11:51:49.127Z,23.39
2016-08-24T11:52:49.124Z,23.39
2016-08-24T11:53:49.114Z,23.32
2016-08-24T11:54:49.090Z,23.32
2016-08-24T11:55:49.066Z,23.34
2016-08-24T11:56:49.061Z,23.26
2016-08-24T11:57:48.320Z,23.32
2016-08-24T11:58:49.016Z,23.37
2016-08-24T11:59:49.122Z,23.32
2016-08-24T12:00:48.285Z,23.34
2016-08-24T12:01:48.968Z,23.32
2016-08-24T12:02:48.272Z,23.32
2016-08-24T12:03:48.943Z,23.34
2016-08-24T12:04:49.148Z,23.29
2016-08-24T12:05:48.203Z,23.32
2016-08-24T12:06:48.906Z,23.37
2016-08-24T12:07:48.175Z,23.29
2016-08-24T12:08:48.868Z,23.38
2016-08-24T12:09:48.151Z,23.37
2016-08-24T12:10:48.844Z,23.37
2016-08-24T12:11:48.116Z,23.29
2016-08-24T12:12:47.400Z,23.35
2016-08-24T12:13:48.794Z,23.29
2016-08-24T12:14:47.363Z,23.41
2016-08-24T12:15:48.059Z,23.37
2016-08-24T12:16:48.755Z,23.39
2016-08-24T12:17:48.727Z,23.38
2016-08-24T12:18:48.718Z,23.44
2016-08-24T12:19:47.998Z,23.38
2016-08-24T12:20:48.697Z,23.34
2016-08-24T12:21:48.670Z,23.39
2016-08-24T12:22:48.655Z,23.35
2016-08-24T12:23:48.650Z,23.39
2016-08-24T12:24:47.916Z,23.34
2016-08-24T12:25:48.606Z,23.42
2016-08-24T12:26:48.591Z,23.37
2016-08-24T12:27:47.865Z,23.38
2016-08-24T12:28:47.844Z,23.38
2016-08-24T12:29:48.545Z,23.38
2016-08-24T12:30:48.530Z,23.38
2016-08-24T12:31:48.521Z,23.41
2016-08-24T12:32:47.793Z,23.39
2016-08-24T12:33:48.481Z,23.44
2016-08-24T12:34:48.489Z,23.42
2016-08-24T12:35:47.748Z,23.39
2016-08-24T12:36:48.438Z,23.52
2016-08-24T12:37:48.427Z,23.38
2016-08-24T12:38:47.712Z,23.45
2016-08-24T12:39:48.393Z,23.39
2016-08-24T12:40:48.380Z,23.39
2016-08-24T12:41:48.358Z,23.42
2016-08-24T12:42:47.634Z,23.41
2016-08-24T12:43:48.330Z,23.39
2016-08-24T12:44:48.310Z,23.38
2016-08-24T12:45:48.298Z,23.47
2016-08-24T12:46:48.290Z,23.39
2016-08-24T12:47:48.275Z,23.41
2016-08-24T12:48:48.262Z,23.39
2016-08-24T12:49:48.235Z,23.47
2016-08-24T12:50:47.510Z,23.42
2016-08-24T12:51:48.202Z,23.39
2016-08-24T12:52:47.483Z,23.44
2016-08-24T12:53:48.180Z,23.44
2016-08-24T12:54:48.167Z,23.44